createdAt,value
2018-05-12T00:01:22.248Z,17.42
2018-05-12T00:03:49.663Z,17.36
2018-05-12T00:06:17.072Z,17.27
2018-05-12T00:08:44.489Z,17.19
2018-05-12T00:11:11.900Z,17.11
2018-05-12T00:13:39.328Z,17.04
2018-05-12T00:16:06.745Z,16.93
2018-05-12T00:18:34.152Z,16.91
2018-05-12T00:21:01.565Z,16.89
2018-05-12T00:23:28.968Z,16.87
2018-05-12T00:25:56.376Z,16.86
2018-05-12T00:28:23.820Z,16.84
2018-05-12T00:30:51.230Z,16.80
2018-05-12T00:33:18.641Z,16.77
2018-05-12T00:35:46.057Z,16.76
2018-05-12T00:38:13.464Z,16.75
2018-05-12T00:40:40.894Z,16.73
2018-05-12T00:43:08.292Z,16.67
2018-05-12T00:45:35.714Z,16.61
2018-05-12T00:48:03.128Z,16.60
2018-05-12T00:50:30.537Z,16.58
2018-05-12T00:52:57.957Z,16.55
2018-05-12T00:55:25.375Z,16.52
2018-05-12T00:57:52.787Z,16.51
2018-05-12T01:00:20.202Z,16.50
2018-05-12T01:02:47.613Z,16.48
2018-05-12T01:05:15.029Z,16.46
2018-05-12T01:07:42.431Z,16.46
2018-05-12T01:10:09.848Z,16.45
2018-05-12T01:12:37.252Z,16.41
2018-05-12T01:15:04.664Z,16.37
2018-05-12T01:17:32.077Z,16.34
2018-05-12T01:19:59.490Z,16.33
2018-05-12T01:22:26.892Z,16.31
2018-05-12T01:24:54.303Z,16.26
2018-05-12T01:27:21.723Z,16.26
2018-05-12T01:29:49.142Z,16.28
2018-05-12T01:32:16.540Z,16.29
2018-05-12T01:34:43.964Z,16.31
2018-05-12T01:37:11.364Z,16.27
2018-05-12T01:39:38.780Z,16.28
2018-05-12T01:42:06.185Z,16.31
2018-05-12T01:44:33.624Z,16.31
2018-05-12T01:47:01.121Z,16.32
2018-05-12T01:49:28.428Z,16.34
2018-05-12T01:51:55.843Z,16.36
2018-05-12T01:54:23.285Z,16.37
2018-05-12T01:56:50.709Z,16.38
2018-05-12T01:59:18.118Z,16.39
2018-05-12T02:01:45.526Z,16.40
2018-05-12T02:04:12.938Z,16.39
2018-05-12T02:06:40.349Z,16.37
2018-05-12T02:09:07.772Z,16.37
2018-05-12T02:11:35.184Z,16.37
2018-05-12T02:14:02.593Z,16.35
2018-05-12T02:16:30.028Z,16.35
2018-05-12T02:18:57.433Z,16.35
2018-05-12T02:21:24.848Z,16.31
2018-05-12T02:23:52.252Z,16.26
2018-05-12T02:26:19.668Z,16.27
2018-05-12T02:28:47.071Z,16.28
2018-05-12T02:31:14.504Z,16.30
2018-05-12T02:33:41.912Z,16.32
2018-05-12T02:36:09.329Z,16.32
2018-05-12T02:38:36.767Z,16.28
2018-05-12T02:41:04.182Z,16.24
2018-05-12T02:43:31.598Z,16.21
2018-05-12T02:45:59.005Z,16.14
2018-05-12T02:48:26.413Z,16.09
2018-05-12T02:50:53.825Z,16.10
2018-05-12T02:53:21.243Z,16.14
2018-05-12T02:55:48.654Z,16.19
2018-05-12T02:58:16.056Z,16.23
2018-05-12T03:00:43.473Z,16.28
2018-05-12T03:03:10.876Z,16.32
2018-05-12T03:05:38.283Z,16.34
2018-05-12T03:08:05.697Z,16.34
2018-05-12T03:10:33.108Z,16.32
2018-05-12T03:13:00.521Z,16.28
2018-05-12T03:15:27.932Z,16.25
2018-05-12T03:17:55.339Z,16.25
2018-05-12T03:20:22.748Z,16.27
2018-05-12T03:22:50.155Z,16.29
2018-05-12T03:25:17.560Z,16.31
2018-05-12T03:27:44.976Z,16.33
2018-05-12T03:30:12.383Z,16.34
2018-05-12T03:32:39.790Z,16.33
2018-05-12T03:35:07.191Z,16.34
2018-05-12T03:37:34.607Z,16.38
2018-05-12T03:40:02.036Z,16.41
2018-05-12T03:42:29.456Z,16.42
2018-05-12T03:44:56.864Z,16.43
2018-05-12T03:47:24.277Z,16.44
2018-05-12T03:49:51.694Z,16.45
2018-05-12T03:52:19.108Z,16.48
2018-05-12T03:54:46.516Z,16.51
2018-05-12T03:57:13.929Z,16.52
2018-05-12T03:59:41.333Z,16.52
2018-05-12T04:02:08.777Z,16.56
2018-05-12T04:04:48.008Z,16.60
2018-05-12T04:07:28.113Z,16.62
2018-05-12T04:10:07.296Z,16.63
2018-05-12T04:12:37.105Z,16.64
2018-05-12T04:15:04.517Z,16.65
2018-05-12T04:17:31.928Z,16.65
2018-05-12T04:19:59.330Z,16.66
2018-05-12T04:22:26.756Z,16.68
2018-05-12T04:24:54.163Z,16.71
2018-05-12T04:27:21.576Z,16.74
2018-05-12T04:29:48.984Z,16.76
2018-05-12T04:32:16.401Z,16.78
2018-05-12T04:34:43.805Z,16.81
2018-05-12T04:37:11.231Z,16.82
2018-05-12T04:39:38.636Z,16.81
2018-05-12T04:42:06.056Z,16.80
2018-05-12T04:44:33.464Z,16.79
2018-05-12T04:47:00.882Z,16.80
2018-05-12T04:49:28.309Z,16.81
2018-05-12T04:51:55.730Z,16.82
2018-05-12T04:54:23.133Z,16.85
2018-05-12T04:56:50.552Z,16.89
2018-05-12T04:59:17.957Z,16.89
2018-05-12T05:01:45.382Z,16.89
2018-05-12T05:04:12.790Z,16.95
2018-05-12T05:06:40.207Z,17.03
2018-05-12T05:09:07.624Z,17.06
2018-05-12T05:11:35.031Z,17.06
2018-05-12T05:14:02.459Z,17.05
2018-05-12T05:16:29.885Z,17.06
2018-05-12T05:18:57.292Z,17.09
2018-05-12T05:21:24.707Z,17.06
2018-05-12T05:23:52.137Z,17.08
2018-05-12T05:26:19.540Z,17.13
2018-05-12T05:28:46.955Z,17.16
2018-05-12T05:31:14.362Z,17.13
2018-05-12T05:33:41.795Z,17.15
2018-05-12T05:36:09.197Z,17.19
2018-05-12T05:38:36.653Z,17.21
2018-05-12T05:41:04.071Z,17.21
2018-05-12T05:43:31.491Z,17.19
2018-05-12T05:45:58.908Z,17.21
2018-05-12T05:48:26.325Z,17.21
2018-05-12T05:50:53.752Z,17.22
2018-05-12T05:53:21.157Z,17.23
2018-05-12T05:55:48.559Z,17.25
2018-05-12T05:58:16.012Z,17.25
2018-05-12T06:00:43.411Z,17.25
2018-05-12T06:03:10.864Z,17.27
2018-05-12T06:05:38.276Z,17.30
2018-05-12T06:08:05.717Z,17.32
2018-05-12T06:10:33.108Z,17.35
2018-05-12T06:13:00.528Z,17.36
2018-05-12T06:15:27.951Z,17.38
2018-05-12T06:17:55.380Z,17.40
2018-05-12T06:20:22.802Z,17.44
2018-05-12T06:22:50.220Z,17.50
2018-05-12T06:25:17.642Z,17.49
2018-05-12T06:27:45.084Z,17.49
2018-05-12T06:30:12.505Z,17.52
2018-05-12T06:32:39.938Z,17.58
2018-05-12T06:35:07.353Z,17.61
2018-05-12T06:37:34.775Z,17.66
2018-05-12T06:40:02.196Z,17.72
2018-05-12T06:42:29.649Z,17.78
2018-05-12T06:44:57.068Z,17.80
2018-05-12T06:47:24.541Z,17.84
2018-05-12T06:49:51.964Z,17.87
2018-05-12T06:52:19.381Z,17.89
2018-05-12T06:54:46.805Z,17.92
2018-05-12T06:57:14.215Z,17.99
2018-05-12T06:59:41.641Z,18.06
2018-05-12T07:02:09.061Z,18.05
2018-05-12T07:04:36.490Z,18.08
2018-05-12T07:07:03.900Z,18.12
2018-05-12T07:09:31.331Z,18.15
2018-05-12T07:11:58.782Z,18.18
2018-05-12T07:14:26.196Z,18.24
2018-05-12T07:16:53.614Z,18.34
2018-05-12T07:19:21.133Z,18.43
2018-05-12T07:21:48.481Z,18.50
2018-05-12T07:24:15.910Z,18.58
2018-05-12T07:26:43.315Z,18.75
2018-05-12T07:29:10.749Z,19.12
2018-05-12T07:31:38.168Z,19.49
2018-05-12T07:34:05.592Z,19.79
2018-05-12T07:36:33.004Z,20.06
2018-05-12T07:39:00.520Z,20.36
2018-05-12T07:41:27.850Z,20.52
2018-05-12T07:43:55.269Z,20.71
2018-05-12T07:46:22.684Z,21.04
2018-05-12T07:48:50.112Z,21.29
2018-05-12T07:51:17.533Z,21.40
2018-05-12T07:53:44.964Z,21.52
2018-05-12T07:56:12.377Z,21.55
2018-05-12T07:58:39.801Z,21.67
2018-05-12T08:01:07.237Z,21.80
2018-05-12T08:03:34.769Z,21.92
2018-05-12T08:06:02.092Z,22.05
2018-05-12T08:08:29.520Z,22.23
2018-05-12T08:10:56.932Z,22.40
2018-05-12T08:13:24.356Z,22.58
2018-05-12T08:15:51.769Z,22.71
2018-05-12T08:18:19.188Z,22.90
2018-05-12T08:20:46.605Z,22.93
2018-05-12T08:23:14.029Z,23.01
2018-05-12T08:25:41.445Z,23.08
2018-05-12T08:28:08.865Z,23.40
2018-05-12T08:30:36.280Z,23.44
2018-05-12T08:33:03.712Z,23.61
2018-05-12T08:35:31.133Z,23.80
2018-05-12T08:37:58.552Z,23.85
2018-05-12T08:40:26.031Z,23.93
2018-05-12T08:42:53.392Z,24.14
2018-05-12T08:45:20.819Z,24.24
2018-05-12T08:47:48.234Z,24.20
2018-05-12T08:50:15.661Z,24.22
2018-05-12T08:52:43.073Z,24.42
2018-05-12T08:55:10.496Z,24.36
2018-05-12T08:57:37.916Z,24.33
2018-05-12T09:00:05.339Z,24.51
2018-05-12T09:02:32.760Z,24.55
2018-05-12T09:05:00.188Z,24.55
2018-05-12T09:07:27.596Z,24.75
2018-05-12T09:09:55.025Z,24.91
2018-05-12T09:12:22.441Z,24.92
2018-05-12T09:14:49.867Z,25.06
2018-05-12T09:17:17.281Z,25.08
2018-05-12T09:19:44.705Z,24.89
2018-05-12T09:22:12.120Z,25.15
2018-05-12T09:24:39.555Z,25.18
2018-05-12T09:27:06.968Z,25.30
2018-05-12T09:29:34.405Z,25.39
2018-05-12T09:32:01.818Z,25.30
2018-05-12T09:34:29.242Z,25.29
2018-05-12T09:36:56.657Z,25.41
2018-05-12T09:39:24.080Z,25.56
2018-05-12T09:41:51.501Z,25.71
2018-05-12T09:44:18.924Z,25.86
2018-05-12T09:46:46.340Z,25.86
2018-05-12T09:49:13.768Z,25.73
2018-05-12T09:51:41.189Z,25.67
2018-05-12T09:54:08.612Z,25.76
2018-05-12T09:56:36.028Z,25.69
2018-05-12T09:59:03.472Z,25.55
2018-05-12T10:01:30.884Z,25.60
2018-05-12T10:03:58.301Z,25.71
2018-05-12T10:06:25.716Z,25.87
2018-05-12T10:08:53.137Z,25.71
2018-05-12T10:11:20.586Z,25.59
2018-05-12T10:13:47.995Z,25.63
2018-05-12T10:16:15.413Z,25.66
2018-05-12T10:18:42.837Z,25.59
2018-05-12T10:21:10.292Z,25.45
2018-05-12T10:23:37.715Z,25.36
2018-05-12T10:26:05.168Z,25.33
2018-05-12T10:28:32.546Z,25.33
2018-05-12T10:30:59.999Z,25.32
2018-05-12T10:33:27.411Z,25.34
2018-05-12T10:35:54.837Z,25.33
2018-05-12T10:38:22.253Z,25.27
2018-05-12T10:40:49.677Z,25.20
2018-05-12T10:43:17.096Z,25.28
2018-05-12T10:45:44.524Z,25.24
2018-05-12T10:48:11.972Z,25.35
2018-05-12T10:50:39.398Z,25.45
2018-05-12T10:53:06.819Z,25.51
2018-05-12T10:55:34.245Z,25.53
2018-05-12T10:58:01.665Z,25.57
2018-05-12T11:00:29.083Z,25.57
2018-05-12T11:02:56.504Z,25.53
2018-05-12T11:05:23.916Z,25.45
2018-05-12T11:07:51.332Z,25.27
2018-05-12T11:10:18.764Z,25.23
2018-05-12T11:12:46.186Z,25.26
2018-05-12T11:15:13.639Z,25.38
2018-05-12T11:17:41.068Z,25.70
2018-05-12T11:20:08.522Z,26.08
2018-05-12T11:22:35.996Z,26.57
2018-05-12T11:25:03.423Z,26.71
2018-05-12T11:27:30.896Z,26.54
2018-05-12T11:29:58.321Z,26.51
2018-05-12T11:32:25.799Z,26.55
2018-05-12T11:34:53.244Z,26.58
2018-05-12T11:37:20.722Z,26.74
2018-05-12T11:39:48.176Z,26.81
2018-05-12T11:42:15.606Z,26.88
2018-05-12T11:44:43.138Z,26.71
2018-05-12T11:47:10.546Z,26.54
2018-05-12T11:49:37.961Z,26.49
2018-05-12T11:52:05.379Z,26.48
2018-05-12T11:54:32.812Z,26.61
2018-05-12T11:57:00.265Z,26.75
2018-05-12T11:59:27.685Z,26.81
2018-05-12T12:01:55.158Z,26.71
2018-05-12T12:04:22.622Z,27.09
2018-05-12T12:06:50.122Z,27.30
2018-05-12T12:09:17.538Z,27.66
2018-05-12T12:11:44.970Z,27.88
2018-05-12T12:14:12.448Z,28.15
2018-05-12T12:16:39.986Z,28.51
2018-05-12T12:19:07.360Z,28.58
2018-05-12T12:21:34.783Z,28.72
2018-05-12T12:24:02.196Z,28.60
2018-05-12T12:26:29.726Z,28.55
2018-05-12T12:28:57.132Z,28.79
2018-05-12T12:31:24.630Z,29.09
2018-05-12T12:33:52.093Z,29.10
2018-05-12T12:36:19.536Z,29.14
2018-05-12T12:38:46.941Z,28.83
2018-05-12T12:41:14.365Z,28.33
2018-05-12T12:43:41.791Z,27.94
2018-05-12T12:46:09.221Z,28.03
2018-05-12T12:48:36.638Z,27.98
2018-05-12T12:51:04.060Z,28.03
2018-05-12T12:53:31.532Z,28.16
2018-05-12T12:55:58.957Z,28.37
2018-05-12T12:58:26.413Z,28.45
2018-05-12T13:00:53.796Z,28.46
2018-05-12T13:03:21.216Z,28.51
2018-05-12T13:05:48.640Z,28.62
2018-05-12T13:08:16.056Z,28.76
2018-05-12T13:10:43.504Z,28.72
2018-05-12T13:13:10.970Z,28.85
2018-05-12T13:15:38.436Z,28.97
2018-05-12T13:18:05.881Z,28.63
2018-05-12T13:20:33.312Z,28.53
2018-05-12T13:23:00.732Z,28.59
2018-05-12T13:25:28.154Z,28.66
2018-05-12T13:27:55.686Z,28.70
2018-05-12T13:30:23.002Z,28.58
2018-05-12T13:32:50.428Z,28.50
2018-05-12T13:35:17.859Z,28.54
2018-05-12T13:37:45.269Z,28.66
2018-05-12T13:40:12.773Z,28.74
2018-05-12T13:42:40.205Z,28.90
2018-05-12T13:45:07.625Z,28.92
2018-05-12T13:47:35.045Z,28.90
2018-05-12T13:50:02.464Z,28.70
2018-05-12T13:52:29.958Z,28.73
2018-05-12T13:54:57.373Z,28.43
2018-05-12T13:57:24.865Z,28.29
2018-05-12T13:59:52.287Z,28.31
2018-05-12T14:02:19.724Z,28.49
2018-05-12T14:04:47.226Z,28.88
2018-05-12T14:07:14.657Z,29.31
2018-05-12T14:09:42.064Z,29.55
2018-05-12T14:12:09.493Z,29.51
2018-05-12T14:14:36.917Z,29.29
2018-05-12T14:17:04.413Z,29.05
2018-05-12T14:19:31.831Z,29.09
2018-05-12T14:21:59.254Z,29.21
2018-05-12T14:24:26.680Z,29.11
2018-05-12T14:26:54.111Z,29.07
2018-05-12T14:29:21.524Z,29.10
2018-05-12T14:31:49.039Z,28.76
2018-05-12T14:34:16.468Z,28.39
2018-05-12T14:36:43.933Z,28.52
2018-05-12T14:39:11.406Z,28.55
2018-05-12T14:41:38.834Z,28.63
2018-05-12T14:44:06.245Z,28.80
2018-05-12T14:46:33.663Z,28.80
2018-05-12T14:49:01.083Z,28.56
2018-05-12T14:51:28.492Z,28.55
2018-05-12T14:53:55.921Z,28.48
2018-05-12T14:56:23.384Z,28.53
2018-05-12T14:58:50.840Z,28.59
2018-05-12T15:01:18.301Z,28.55
2018-05-12T15:03:45.761Z,28.45
2018-05-12T15:06:13.204Z,28.33
2018-05-12T15:08:40.665Z,28.33
2018-05-12T15:11:08.137Z,28.29
2018-05-12T15:13:35.555Z,28.21
2018-05-12T15:16:02.963Z,28.06
2018-05-12T15:18:30.484Z,27.92
2018-05-12T15:20:57.888Z,27.99
2018-05-12T15:23:25.404Z,27.80
2018-05-12T15:25:52.819Z,27.61
2018-05-12T15:28:20.253Z,27.33
2018-05-12T15:30:47.777Z,27.16
2018-05-12T15:33:15.196Z,27.14
2018-05-12T15:35:42.613Z,26.92
2018-05-12T15:38:10.037Z,26.75
2018-05-12T15:40:37.458Z,26.62
2018-05-12T15:43:04.882Z,26.49
2018-05-12T15:45:32.305Z,26.43
2018-05-12T15:47:59.732Z,26.48
2018-05-12T15:50:27.160Z,26.43
2018-05-12T15:52:54.576Z,26.34
2018-05-12T15:55:21.988Z,26.32
2018-05-12T15:57:49.410Z,26.32
2018-05-12T16:00:16.824Z,26.31
2018-05-12T16:02:44.281Z,26.24
2018-05-12T16:05:11.704Z,26.22
2018-05-12T16:07:39.124Z,26.21
2018-05-12T16:10:06.554Z,26.14
2018-05-12T16:12:33.981Z,26.07
2018-05-12T16:15:01.420Z,26.02
2018-05-12T16:17:28.825Z,25.94
2018-05-12T16:19:56.236Z,25.91
2018-05-12T16:22:23.725Z,25.86
2018-05-12T16:24:51.144Z,25.76
2018-05-12T16:27:18.556Z,25.68
2018-05-12T16:29:45.980Z,25.62
2018-05-12T16:32:13.394Z,25.51
2018-05-12T16:34:40.808Z,25.51
2018-05-12T16:37:08.244Z,25.45
2018-05-12T16:39:35.708Z,25.29
2018-05-12T16:42:03.125Z,25.25
2018-05-12T16:44:30.676Z,25.24
2018-05-12T16:46:58.043Z,25.22
2018-05-12T16:49:25.468Z,25.06
2018-05-12T16:51:52.884Z,24.95
2018-05-12T16:54:20.313Z,24.75
2018-05-12T16:56:47.733Z,24.65
2018-05-12T16:59:15.270Z,24.58
2018-05-12T17:01:42.669Z,24.49
2018-05-12T17:04:10.157Z,24.38
2018-05-12T17:06:37.617Z,24.39
2018-05-12T17:09:05.884Z,24.33
2018-05-12T17:11:33.339Z,24.30
2018-05-12T17:14:00.766Z,24.25
2018-05-12T17:16:28.209Z,24.15
2018-05-12T17:18:55.712Z,24.09
2018-05-12T17:21:23.162Z,23.95
2018-05-12T17:23:50.585Z,23.91
2018-05-12T17:26:18.085Z,23.82
2018-05-12T17:28:45.529Z,23.76
2018-05-12T17:31:12.932Z,23.64
2018-05-12T17:33:40.444Z,23.65
2018-05-12T17:36:07.865Z,23.59
2018-05-12T17:38:35.285Z,23.47
2018-05-12T17:41:02.826Z,23.47
2018-05-12T17:43:30.254Z,23.48
2018-05-12T17:45:57.669Z,23.50
2018-05-12T17:48:25.095Z,23.51
2018-05-12T17:50:52.513Z,23.45
2018-05-12T17:53:19.943Z,23.41
2018-05-12T17:55:47.456Z,23.46
2018-05-12T17:58:14.784Z,23.44
2018-05-12T18:00:42.192Z,23.29
2018-05-12T18:03:09.613Z,23.23
2018-05-12T18:05:37.053Z,23.19
2018-05-12T18:08:04.472Z,23.14
2018-05-12T18:10:31.900Z,23.13
2018-05-12T18:12:59.320Z,23.21
2018-05-12T18:15:26.736Z,23.19
2018-05-12T18:17:54.157Z,23.03
2018-05-12T18:20:22.435Z,22.95
2018-05-12T18:22:49.844Z,22.87
2018-05-12T18:25:17.301Z,22.79
2018-05-12T18:27:44.718Z,22.77
2018-05-12T18:30:12.143Z,22.65
2018-05-12T18:32:39.567Z,22.67
2018-05-12T18:35:07.003Z,22.54
2018-05-12T18:37:34.412Z,22.36
2018-05-12T18:40:01.845Z,22.31
2018-05-12T18:42:29.294Z,22.29
2018-05-12T18:44:56.761Z,22.14
2018-05-12T18:47:24.336Z,22.13
2018-05-12T18:49:51.759Z,22.00
2018-05-12T18:52:19.168Z,21.88
2018-05-12T18:54:46.592Z,21.75
2018-05-12T18:57:14.003Z,21.77
2018-05-12T18:59:41.430Z,21.72
2018-05-12T19:02:08.845Z,21.80
2018-05-12T19:04:36.292Z,21.77
2018-05-12T19:07:03.719Z,21.92
2018-05-12T19:09:31.144Z,21.96
2018-05-12T19:11:58.568Z,21.88
2018-05-12T19:14:26.029Z,21.99
2018-05-12T19:16:53.472Z,22.17
2018-05-12T19:19:20.896Z,22.21
2018-05-12T19:21:48.395Z,22.44
2018-05-12T19:24:15.844Z,22.52
2018-05-12T19:26:43.304Z,22.39
2018-05-12T19:29:10.732Z,22.55
2018-05-12T19:31:38.150Z,22.52
2018-05-12T19:34:05.659Z,22.28
2018-05-12T19:36:33.085Z,22.28
2018-05-12T19:39:00.508Z,21.98
2018-05-12T19:41:27.921Z,21.96
2018-05-12T19:43:55.336Z,21.96
2018-05-12T19:46:22.776Z,21.86
2018-05-12T19:48:50.310Z,21.88
2018-05-12T19:51:17.750Z,21.93
2018-05-12T19:53:45.298Z,21.92
2018-05-12T19:56:12.790Z,21.87
2018-05-12T19:58:40.356Z,21.82
2018-05-12T20:01:08.529Z,21.56
2018-05-12T20:03:35.965Z,21.41
2018-05-12T20:06:03.383Z,21.43
2018-05-12T20:08:30.860Z,21.39
2018-05-12T20:10:58.296Z,21.33
2018-05-12T20:13:25.780Z,21.26
2018-05-12T20:15:53.308Z,21.08
2018-05-12T20:18:20.628Z,21.23
2018-05-12T20:20:48.156Z,21.14
2018-05-12T20:23:15.584Z,21.18
2018-05-12T20:25:43.066Z,21.19
2018-05-12T20:28:12.763Z,21.35
2018-05-12T20:30:41.425Z,21.32
2018-05-12T20:33:08.852Z,21.36
2018-05-12T20:35:36.279Z,21.36
2018-05-12T20:38:03.845Z,21.47
2018-05-12T20:40:32.034Z,21.53
2018-05-12T20:42:59.448Z,21.53
2018-05-12T20:45:26.892Z,21.59
2018-05-12T20:47:54.377Z,21.69
2018-05-12T20:50:21.909Z,21.77
2018-05-12T20:52:49.344Z,21.80
2018-05-12T20:55:16.774Z,21.78
2018-05-12T20:57:44.181Z,21.88
2018-05-12T21:00:11.623Z,22.05
2018-05-12T21:02:39.046Z,22.15
2018-05-12T21:05:06.540Z,22.10
2018-05-12T21:07:34.008Z,22.22
2018-05-12T21:10:01.424Z,22.21
2018-05-12T21:12:28.914Z,22.24
2018-05-12T21:14:56.360Z,22.26
2018-05-12T21:17:23.780Z,22.14
2018-05-12T21:19:51.277Z,22.18
2018-05-12T21:22:18.791Z,22.25
2018-05-12T21:24:46.136Z,22.35
2018-05-12T21:27:13.562Z,22.44
2018-05-12T21:29:40.972Z,22.55
2018-05-12T21:32:08.397Z,22.65
2018-05-12T21:34:35.897Z,22.78
2018-05-12T21:37:03.325Z,22.88
2018-05-12T21:39:30.739Z,22.79
2018-05-12T21:41:58.162Z,22.82
2018-05-12T21:44:25.571Z,22.85
2018-05-12T21:46:53.007Z,22.82
2018-05-12T21:49:20.428Z,22.73
2018-05-12T21:51:47.897Z,22.68
2018-05-12T21:54:15.354Z,22.51
2018-05-12T21:56:42.773Z,22.43
2018-05-12T21:59:10.253Z,22.45
2018-05-12T22:01:37.688Z,22.35
2018-05-12T22:04:05.160Z,22.29
2018-05-12T22:06:32.619Z,22.29
2018-05-12T22:09:00.095Z,22.14
2018-05-12T22:11:27.515Z,22.08
2018-05-12T22:13:54.989Z,21.96
2018-05-12T22:16:22.412Z,21.88
2018-05-12T22:18:49.832Z,21.90
2018-05-12T22:21:17.253Z,21.94
2018-05-12T22:23:44.706Z,22.04
2018-05-12T22:26:12.124Z,21.97
2018-05-12T22:28:39.538Z,22.02
2018-05-12T22:31:06.968Z,22.07
2018-05-12T22:33:34.392Z,22.10
2018-05-12T22:36:01.894Z,22.10
2018-05-12T22:38:29.338Z,22.16
2018-05-12T22:40:56.799Z,22.27
2018-05-12T22:43:24.211Z,22.44
2018-05-12T22:45:51.636Z,22.48
2018-05-12T22:48:19.067Z,22.56
2018-05-12T22:50:46.532Z,22.56
2018-05-12T22:53:13.960Z,22.56
2018-05-12T22:55:41.388Z,22.49
2018-05-12T22:58:08.797Z,22.53
2018-05-12T23:00:36.275Z,22.45
2018-05-12T23:03:03.927Z,22.31
2018-05-12T23:05:31.345Z,22.16
2018-05-12T23:07:58.783Z,22.07
2018-05-12T23:10:26.257Z,22.04
2018-05-12T23:12:53.712Z,22.04
2018-05-12T23:15:21.183Z,21.97
2018-05-12T23:17:48.627Z,21.85
2018-05-12T23:20:16.044Z,21.59
2018-05-12T23:22:48.212Z,21.32
2018-05-12T23:25:15.628Z,21.17
2018-05-12T23:27:43.157Z,21.04
2018-05-12T23:30:10.578Z,20.76
2018-05-12T23:32:38.073Z,20.46
2018-05-12T23:35:05.497Z,20.32
2018-05-12T23:37:32.912Z,20.24
2018-05-12T23:40:00.336Z,20.08
2018-05-12T23:42:27.838Z,20.07
2018-05-12T23:44:55.205Z,20.10
2018-05-12T23:47:22.620Z,20.19
2018-05-12T23:49:50.037Z,20.09
2018-05-12T23:52:17.452Z,19.92
2018-05-12T23:54:44.868Z,19.68
2018-05-12T23:57:12.312Z,19.62
2018-05-12T23:59:39.776Z,19.67
